Roanoke, Virginia
Current Conditions -  °F | °C
As of 12:54 PM on Wednesday 28 Jan 2015 (Local Time) from KROA Reporting Station
Clear Clear  
Wind Chill:   Ceiling: Unl
Heat Index:   Visibility: 10mi
Dew Point: -14°   Wind: 10mph
Humidity: 27%   Direction: 350°N
Pressure: 30.23"   Gusts: NA
Location:  37.27°N, 79.94°W
Report Text: KROA 281754Z 35009KT 10SM CLR 04/M14 A3023 RMK AO2 SLP245 T00391139 10044 21056 58011
Loading
Personal Weather Stations






























Interactive Weather Map New forecast layout! Learn more

10-Day Weather Forecast

Advertisements
Track Severe Weather on mobile